Time;durP1;ratioP1;P1;durP2;ratioP2;P2;SDS_P1;SDS_P2;PMS_P1;PMS_P2;Temp;Humidity;BMP_temperature;BMP_pressure;BME280_temperature;BME280_humidity;BME280_pressure;Samples;Min_cycle;Max_cycle;Signal;HPM_P1;HPM_P2
2023/02/02 00:00:49;;;;;;;8.05;3.05;;;4.20;99.90;;;;;;5000012;28;20566;-76
2023/02/02 00:03:15;;;;;;;5.90;2.75;;;4.20;99.90;;;;;;5000206;28;20097;-80
2023/02/02 00:05:48;;;;;;;4.82;2.13;;;4.20;99.90;;;;;;5000436;28;20028;-77
2023/02/02 00:08:15;;;;;;;2.60;2.05;;;4.20;99.90;;;;;;5005583;28;20037;-80
2023/02/02 00:10:41;;;;;;;3.67;2.42;;;4.20;99.90;;;;;;5006681;28;20036;-78
2023/02/02 00:13:07;;;;;;;4.35;1.80;;;4.10;99.90;;;;;;5003720;28;20033;-80
2023/02/02 00:15:32;;;;;;;2.97;2.40;;;4.10;99.90;;;;;;5005573;28;20030;-77
2023/02/02 00:17:58;;;;;;;3.75;2.17;;;4.20;99.90;;;;;;5004579;28;20136;-79
2023/02/02 00:20:24;;;;;;;7.53;2.60;;;4.20;99.90;;;;;;5001748;28;20076;-78
2023/02/02 00:22:49;;;;;;;4.43;2.63;;;4.10;99.90;;;;;;5002257;28;20125;-77
2023/02/02 00:25:15;;;;;;;6.03;1.92;;;4.20;99.90;;;;;;4999057;28;20153;-78
2023/02/02 00:27:41;;;;;;;7.53;2.22;;;4.10;99.90;;;;;;5004631;28;20517;-77
2023/02/02 00:30:07;;;;;;;2.75;2.13;;;4.20;99.90;;;;;;5010514;28;20037;-79
2023/02/02 00:32:33;;;;;;;2.75;2.08;;;4.20;99.90;;;;;;5004683;28;20056;-77
2023/02/02 00:34:59;;;;;;;4.10;1.67;;;4.30;99.90;;;;;;5006156;28;20029;-81
2023/02/02 00:37:24;;;;;;;5.15;2.38;;;4.20;99.90;;;;;;5007169;28;20774;-78
2023/02/02 00:39:50;;;;;;;6.65;2.40;;;4.20;99.90;;;;;;5004457;28;20557;-78
2023/02/02 00:42:16;;;;;;;6.22;2.13;;;4.20;99.90;;;;;;5001536;28;20105;-78
2023/02/02 00:47:26;;;;;;;2.45;1.42;;;4.20;99.90;;;;;;5004823;28;20115;-78
2023/02/02 00:49:51;;;;;;;2.40;1.77;;;4.20;99.90;;;;;;5004098;28;20748;-79
2023/02/02 00:52:17;;;;;;;4.65;2.05;;;4.10;99.90;;;;;;5000439;28;20033;-82
2023/02/02 00:54:42;;;;;;;8.45;3.10;;;4.10;99.90;;;;;;5003511;28;20033;-77
2023/02/02 00:57:12;;;;;;;2.42;1.92;;;4.20;99.90;;;;;;5005101;28;20486;-77
2023/02/02 00:59:38;;;;;;;5.40;2.35;;;4.20;99.90;;;;;;5003016;28;20137;-82
2023/02/02 01:02:03;;;;;;;6.30;2.30;;;4.10;99.90;;;;;;5006984;28;20045;-80
2023/02/02 01:04:29;;;;;;;3.60;2.30;;;4.20;99.90;;;;;;5005720;28;20109;-80
2023/02/02 01:06:55;;;;;;;3.60;2.13;;;4.20;99.90;;;;;;5002333;28;20141;-77
2023/02/02 01:09:20;;;;;;;4.22;2.30;;;4.10;99.90;;;;;;5003948;28;20029;-80
2023/02/02 01:11:46;;;;;;;4.25;1.92;;;4.30;99.90;;;;;;5002437;28;20107;-81
2023/02/02 01:14:12;;;;;;;7.70;2.25;;;4.30;99.90;;;;;;5001199;28;20042;-78
2023/02/02 01:16:37;;;;;;;1.58;1.48;;;4.20;99.90;;;;;;5001593;28;20470;-78
2023/02/02 01:19:03;;;;;;;7.05;2.60;;;4.20;99.90;;;;;;4999936;28;20022;-78
2023/02/02 01:21:29;;;;;;;7.07;2.97;;;4.30;99.90;;;;;;5002784;28;20033;-81
2023/02/02 01:23:54;;;;;;;3.40;1.67;;;4.30;99.90;;;;;;5000878;28;20137;-80
2023/02/02 01:26:20;;;;;;;3.65;2.08;;;4.30;99.90;;;;;;5002706;28;20021;-78
2023/02/02 01:28:46;;;;;;;2.30;1.60;;;4.30;99.90;;;;;;5002292;28;20026;-78
2023/02/02 01:31:17;;;;;;;1.65;1.48;;;4.20;99.90;;;;;;4998877;28;20053;-81
2023/02/02 01:33:45;;;;;;;1.45;1.35;;;4.20;99.90;;;;;;5001027;28;20080;-77
2023/02/02 01:36:14;;;;;;;5.00;2.53;;;4.20;99.90;;;;;;5003668;28;20065;-77
2023/02/02 01:38:41;;;;;;;5.72;2.53;;;4.20;99.90;;;;;;5001608;28;20030;-77
2023/02/02 01:41:07;;;;;;;4.25;2.40;;;4.30;99.90;;;;;;4999019;28;20034;-79
2023/02/02 01:43:41;;;;;;;4.65;2.38;;;4.20;99.90;;;;;;4997414;28;20028;-77
2023/02/02 01:46:15;;;;;;;4.85;2.03;;;4.20;99.90;;;;;;4999586;28;20038;-80
2023/02/02 01:48:47;;;;;;;1.80;1.70;;;4.20;99.90;;;;;;5001842;28;20061;-78
2023/02/02 01:51:19;;;;;;;5.38;2.08;;;4.20;99.90;;;;;;4999931;28;20034;-78
2023/02/02 01:53:48;;;;;;;4.70;2.33;;;4.20;99.90;;;;;;5019969;28;20026;-78
2023/02/02 01:56:20;;;;;;;3.15;2.15;;;4.20;99.90;;;;;;4998864;28;20042;-80
2023/02/02 01:58:46;;;;;;;6.38;2.13;;;4.30;99.90;;;;;;5002321;28;20122;-81
2023/02/02 02:01:13;;;;;;;6.07;2.22;;;4.20;99.90;;;;;;5000232;28;20046;-77
2023/02/02 02:03:39;;;;;;;3.70;2.67;;;4.20;99.90;;;;;;5004651;28;20145;-79
2023/02/02 02:06:11;;;;;;;5.13;2.42;;;4.30;99.90;;;;;;5012097;28;20109;-81
2023/02/02 02:08:51;;;;;;;4.20;1.77;;;4.20;99.90;;;;;;5008125;28;20068;-80
2023/02/02 02:11:18;;;;;;;5.00;2.10;;;4.20;99.90;;;;;;5010938;28;20113;-76
2023/02/02 02:16:34;;;;;;;3.53;1.83;;;4.20;99.90;;;;;;5009490;28;20045;-82
2023/02/02 02:26:32;;;;;;;3.25;2.20;;;4.20;99.90;;;;;;5003826;28;20376;-77
2023/02/02 02:29:02;;;;;;;5.88;2.28;;;4.10;99.90;;;;;;5010180;28;20493;-78
2023/02/02 02:31:30;;;;;;;6.07;2.42;;;4.10;99.90;;;;;;5007951;28;22394;-78
2023/02/02 02:34:28;;;;;;;4.97;2.30;;;4.10;99.90;;;;;;5005307;28;20517;-78
2023/02/02 02:37:17;;;;;;;6.05;2.90;;;4.10;99.90;;;;;;4989263;28;20045;-76
2023/02/02 02:39:51;;;;;;;6.90;2.35;;;4.10;99.90;;;;;;5008168;28;20101;-78
2023/02/02 02:42:22;;;;;;;5.15;2.60;;;4.10;99.90;;;;;;5005815;28;20458;-80
2023/02/02 02:44:49;;;;;;;7.25;2.47;;;4.10;99.90;;;;;;5007781;28;20049;-79
2023/02/02 02:47:17;;;;;;;5.45;2.47;;;4.10;99.90;;;;;;5005875;28;20030;-80
2023/02/02 02:49:44;;;;;;;9.32;3.28;;;4.10;99.90;;;;;;5007494;28;20109;-78
2023/02/02 02:52:10;;;;;;;8.00;2.63;;;4.10;99.90;;;;;;5002107;28;20040;-77
2023/02/02 02:54:44;;;;;;;7.95;2.55;;;4.10;99.90;;;;;;5024259;28;20025;-77
2023/02/02 02:57:38;;;;;;;10.70;3.03;;;4.00;99.90;;;;;;5009464;28;20030;-79
2023/02/02 03:00:37;;;;;;;7.63;2.97;;;4.00;99.90;;;;;;5024959;28;20017;-77
2023/02/02 03:03:15;;;;;;;6.63;3.05;;;4.00;99.90;;;;;;5007739;28;20040;-77
2023/02/02 03:05:55;;;;;;;6.97;3.25;;;4.00;99.90;;;;;;5005242;28;20029;-80
2023/02/02 03:08:21;;;;;;;7.80;3.30;;;4.00;99.90;;;;;;5002713;28;20092;-78
2023/02/02 03:10:47;;;;;;;3.33;2.05;;;4.00;99.90;;;;;;5008623;28;20441;-78
2023/02/02 03:13:14;;;;;;;5.00;2.60;;;3.90;99.90;;;;;;5004682;28;20077;-78
2023/02/02 03:15:45;;;;;;;1.98;1.83;;;3.90;99.90;;;;;;5003822;28;20452;-76
2023/02/02 03:18:13;;;;;;;8.35;3.30;;;3.80;99.90;;;;;;5007855;28;20049;-80
2023/02/02 03:20:39;;;;;;;7.22;2.72;;;3.90;99.90;;;;;;5007361;28;20040;-78
2023/02/02 03:23:04;;;;;;;3.80;2.60;;;3.90;99.90;;;;;;5008078;28;20025;-78
2023/02/02 03:25:30;;;;;;;5.95;2.58;;;3.90;99.90;;;;;;5004585;28;20104;-78
2023/02/02 03:27:57;;;;;;;8.57;2.70;;;3.90;99.90;;;;;;5010063;28;20022;-84
2023/02/02 03:30:23;;;;;;;6.25;2.45;;;3.80;99.90;;;;;;5005590;28;20096;-78
2023/02/02 03:32:49;;;;;;;8.38;3.60;;;3.80;99.90;;;;;;5007731;28;20030;-79
2023/02/02 03:35:15;;;;;;;8.13;3.35;;;3.90;99.90;;;;;;5006358;28;20037;-78
2023/02/02 03:37:40;;;;;;;4.55;2.00;;;3.90;99.90;;;;;;5004778;28;20023;-78
2023/02/02 03:40:06;;;;;;;10.05;3.30;;;4.00;99.90;;;;;;5009326;28;20057;-75
2023/02/02 03:42:32;;;;;;;4.03;2.72;;;4.00;99.90;;;;;;5005591;28;20048;-75
2023/02/02 03:44:58;;;;;;;6.60;3.28;;;4.00;99.90;;;;;;5012028;28;20021;-78
2023/02/02 03:47:28;;;;;;;5.82;2.53;;;4.00;99.90;;;;;;5009398;28;20038;-79
2023/02/02 03:49:53;;;;;;;7.93;2.75;;;4.00;99.90;;;;;;5009237;28;20026;-79
2023/02/02 03:52:19;;;;;;;9.00;3.25;;;4.00;99.90;;;;;;5006373;28;20383;-78
2023/02/02 03:54:44;;;;;;;6.80;3.22;;;4.10;99.90;;;;;;5005360;28;20097;-78
2023/02/02 03:57:10;;;;;;;6.85;2.72;;;4.00;99.90;;;;;;5007624;28;20029;-80
2023/02/02 03:59:36;;;;;;;3.78;2.65;;;4.10;99.90;;;;;;5004792;28;20497;-78
2023/02/02 04:02:01;;;;;;;6.18;2.75;;;4.10;99.90;;;;;;5003687;28;20380;-79
2023/02/02 04:04:27;;;;;;;6.03;2.83;;;4.10;99.90;;;;;;5007582;28;20072;-79
2023/02/02 04:06:53;;;;;;;4.90;2.50;;;4.10;99.90;;;;;;5006518;28;20033;-76
2023/02/02 04:09:18;;;;;;;3.88;2.50;;;4.20;99.90;;;;;;5007175;28;20498;-78
2023/02/02 04:11:44;;;;;;;5.43;2.22;;;4.10;99.90;;;;;;5005826;28;20026;-79
2023/02/02 04:14:10;;;;;;;3.40;2.55;;;4.10;99.90;;;;;;5006695;28;20380;-80
2023/02/02 04:16:36;;;;;;;7.13;2.72;;;4.20;99.90;;;;;;5001753;28;20038;-79
2023/02/02 04:19:03;;;;;;;6.78;2.95;;;4.20;99.90;;;;;;5002979;28;20085;-79
2023/02/02 04:21:29;;;;;;;3.53;2.15;;;4.20;99.90;;;;;;5004899;28;20026;-76
2023/02/02 04:23:55;;;;;;;4.57;2.42;;;4.20;99.90;;;;;;5006715;28;20100;-82
2023/02/02 04:26:24;;;;;;;5.25;2.13;;;4.20;99.90;;;;;;5004319;28;20033;-80
2023/02/02 04:28:50;;;;;;;;;;;4.20;99.90;;;;;;5006664;28;21041;-78
2023/02/02 04:31:16;;;;;;;6.30;2.42;;;4.20;99.90;;;;;;4999988;28;20267;-78
2023/02/02 04:33:41;;;;;;;4.45;1.98;;;4.10;99.90;;;;;;4998203;28;20485;-77
2023/02/02 04:36:07;;;;;;;3.80;2.53;;;4.10;99.90;;;;;;5007988;28;20116;-78
2023/02/02 04:38:33;;;;;;;4.22;2.30;;;4.00;99.90;;;;;;5003642;28;20053;-79
2023/02/02 04:41:06;;;;;;;5.43;2.55;;;4.10;99.90;;;;;;5008126;28;20054;-79
2023/02/02 04:43:33;;;;;;;5.55;2.72;;;4.10;99.90;;;;;;5007188;28;20026;-78
2023/02/02 04:45:59;;;;;;;5.75;2.78;;;4.10;99.90;;;;;;5006352;28;20026;-78
2023/02/02 04:48:24;;;;;;;4.07;2.47;;;4.10;99.90;;;;;;5003530;28;20073;-78
2023/02/02 04:50:50;;;;;;;4.93;2.47;;;4.00;99.90;;;;;;5008613;28;20422;-80
2023/02/02 04:53:16;;;;;;;2.92;2.20;;;4.00;99.90;;;;;;5004348;28;20627;-77
2023/02/02 04:55:41;;;;;;;2.92;1.85;;;4.00;99.90;;;;;;5009929;28;20039;-78
2023/02/02 04:58:07;;;;;;;4.32;3.08;;;4.10;99.90;;;;;;5005139;28;20084;-79
2023/02/02 05:00:33;;;;;;;4.75;2.17;;;4.20;99.90;;;;;;4998752;28;20053;-77
2023/02/02 05:02:59;;;;;;;5.25;2.33;;;4.10;99.90;;;;;;5001199;28;20462;-77
2023/02/02 05:05:24;;;;;;;3.85;2.38;;;4.10;99.90;;;;;;4999952;28;20042;-78
2023/02/02 05:07:50;;;;;;;4.50;2.05;;;4.20;99.90;;;;;;4999385;28;20038;-77
2023/02/02 05:10:16;;;;;;;6.43;2.03;;;4.10;99.90;;;;;;5003878;28;20394;-78
2023/02/02 05:12:41;;;;;;;5.05;2.45;;;4.10;99.90;;;;;;4999708;28;20038;-82
2023/02/02 05:15:08;;;;;;;3.13;1.90;;;4.20;99.90;;;;;;5004830;28;20044;-79
2023/02/02 05:17:33;;;;;;;5.78;2.20;;;4.30;99.90;;;;;;5008422;28;20474;-78
2023/02/02 05:19:59;;;;;;;3.00;2.08;;;4.30;99.90;;;;;;4999376;28;20145;-78
2023/02/02 05:22:25;;;;;;;2.60;1.90;;;4.30;99.90;;;;;;4999096;28;20057;-78
2023/02/02 05:24:51;;;;;;;2.65;2.00;;;4.30;99.90;;;;;;5002407;28;20546;-79
2023/02/02 05:27:16;;;;;;;5.97;1.70;;;4.30;99.90;;;;;;4999529;28;20030;-80
2023/02/02 05:29:42;;;;;;;5.82;2.20;;;4.30;99.90;;;;;;5002343;28;20593;-78
2023/02/02 05:32:08;;;;;;;4.82;2.10;;;4.30;99.90;;;;;;4999751;28;20038;-81
2023/02/02 05:34:33;;;;;;;3.85;1.88;;;4.30;99.90;;;;;;4999199;28;20025;-77
2023/02/02 05:36:59;;;;;;;4.20;1.73;;;4.30;99.90;;;;;;5005517;28;20029;-78
2023/02/02 05:39:24;;;;;;;5.95;1.95;;;4.30;99.90;;;;;;5011653;28;20517;-78
2023/02/02 05:41:50;;;;;;;5.70;2.50;;;4.30;99.90;;;;;;5007491;28;20026;-80
2023/02/02 05:44:16;;;;;;;3.00;1.77;;;4.30;99.90;;;;;;5008862;28;20108;-78
2023/02/02 05:46:44;;;;;;;4.05;1.90;;;4.30;99.90;;;;;;5010410;28;20034;-81
2023/02/02 05:49:12;;;;;;;5.57;2.40;;;4.30;99.90;;;;;;5009294;28;20121;-78
2023/02/02 05:51:45;;;;;;;2.83;1.45;;;4.30;99.90;;;;;;5007378;28;20032;-76
2023/02/02 05:54:11;;;;;;;2.78;1.88;;;4.30;99.90;;;;;;5010809;28;20450;-81
2023/02/02 05:56:38;;;;;;;3.50;2.00;;;4.30;99.90;;;;;;5008461;28;20092;-78
2023/02/02 05:59:06;;;;;;;5.95;2.20;;;4.30;99.90;;;;;;5004734;28;20442;-73
2023/02/02 06:01:32;;;;;;;2.53;1.48;;;4.30;99.90;;;;;;5012211;28;20506;-76
2023/02/02 06:03:58;;;;;;;5.53;2.28;;;4.30;99.90;;;;;;5023798;28;20022;-74
2023/02/02 06:06:24;;;;;;;4.07;1.95;;;4.30;99.90;;;;;;5009849;28;20077;-75
2023/02/02 06:08:49;;;;;;;6.53;2.33;;;4.20;99.90;;;;;;5006123;28;20049;-76
2023/02/02 06:11:17;;;;;;;4.45;2.08;;;4.30;99.90;;;;;;5007428;28;20037;-74
2023/02/02 06:13:44;;;;;;;5.40;1.73;;;4.30;99.90;;;;;;5001882;28;20034;-74
2023/02/02 06:16:10;;;;;;;3.13;1.83;;;4.30;99.90;;;;;;5023180;28;20049;-73
2023/02/02 06:18:35;;;;;;;2.55;1.98;;;4.30;99.90;;;;;;5012524;28;20057;-73
2023/02/02 06:21:04;;;;;;;1.50;1.40;;;4.30;99.90;;;;;;5010297;28;20367;-73
2023/02/02 06:23:31;;;;;;;1.77;1.52;;;4.30;99.90;;;;;;5010129;28;20038;-73
2023/02/02 06:25:57;;;;;;;5.75;2.40;;;4.30;99.90;;;;;;5006079;28;20060;-75
2023/02/02 06:28:22;;;;;;;6.10;2.38;;;4.30;99.90;;;;;;5004325;28;20176;-74
2023/02/02 06:30:48;;;;;;;4.22;1.90;;;4.30;99.90;;;;;;5011777;28;20080;-76
2023/02/02 06:33:14;;;;;;;2.17;1.45;;;4.30;99.90;;;;;;5000993;28;20029;-73
2023/02/02 06:35:39;;;;;;;6.57;2.50;;;4.30;99.90;;;;;;4997516;28;20064;-73
2023/02/02 06:38:05;;;;;;;5.05;1.63;;;4.30;99.90;;;;;;5006609;28;20117;-76
2023/02/02 06:40:30;;;;;;;5.25;1.80;;;4.30;99.90;;;;;;5007467;28;20116;-74
2023/02/02 06:43:01;;;;;;;2.22;1.80;;;4.30;99.90;;;;;;5006211;28;20080;-74
2023/02/02 06:45:28;;;;;;;4.53;2.63;;;4.20;99.90;;;;;;5008232;28;20026;-74
2023/02/02 06:47:59;;;;;;;6.53;2.30;;;4.20;99.90;;;;;;5007592;28;20029;-74
2023/02/02 06:50:25;;;;;;;5.97;2.15;;;4.20;99.90;;;;;;5010580;28;20033;-73
2023/02/02 06:52:51;;;;;;;3.35;1.77;;;4.20;99.90;;;;;;5008196;28;20041;-75
2023/02/02 06:55:18;;;;;;;2.17;2.03;;;4.20;99.90;;;;;;5008301;28;20654;-76
2023/02/02 06:57:44;;;;;;;9.00;2.25;;;4.20;99.90;;;;;;5007187;28;20100;-74
2023/02/02 07:00:13;;;;;;;2.17;1.88;;;4.20;99.90;;;;;;5009848;28;20061;-74
2023/02/02 07:02:43;;;;;;;5.70;1.73;;;4.20;99.90;;;;;;5008698;28;20423;-74
2023/02/02 07:05:09;;;;;;;5.78;2.40;;;4.30;99.90;;;;;;5008204;28;20053;-74
2023/02/02 07:07:34;;;;;;;4.03;1.92;;;4.30;99.90;;;;;;5006060;28;20069;-79
2023/02/02 07:10:00;;;;;;;6.40;2.30;;;4.30;99.90;;;;;;5006473;28;20038;-75
2023/02/02 07:12:26;;;;;;;2.50;1.55;;;4.30;99.90;;;;;;5009879;28;20084;-74
2023/02/02 07:14:52;;;;;;;4.38;2.70;;;4.30;99.90;;;;;;5004151;28;20064;-73
2023/02/02 07:17:18;;;;;;;1.48;1.38;;;4.30;99.90;;;;;;5005394;28;20050;-73
2023/02/02 07:19:44;;;;;;;8.00;2.90;;;4.30;99.90;;;;;;5009579;28;20083;-75
2023/02/02 07:22:10;;;;;;;6.75;2.33;;;4.30;99.90;;;;;;4999747;28;20438;-75
2023/02/02 07:24:39;;;;;;;6.03;2.30;;;4.30;99.90;;;;;;5004540;28;20030;-75
2023/02/02 07:27:04;;;;;;;;;;;4.40;99.90;;;;;;5008210;28;20030;-75
2023/02/02 07:29:30;;;;;;;4.85;2.53;;;4.40;99.90;;;;;;5031526;28;19918;-74
2023/02/02 07:31:56;;;;;;;3.08;2.20;;;4.30;99.90;;;;;;5002785;28;20037;-74
2023/02/02 07:34:22;;;;;;;2.65;1.95;;;4.30;99.90;;;;;;5009681;28;20076;-74
2023/02/02 07:36:47;;;;;;;4.63;1.95;;;4.40;99.90;;;;;;5007043;28;20057;-75
2023/02/02 07:39:13;;;;;;;3.55;2.20;;;4.40;99.90;;;;;;5003871;28;20034;-75
2023/02/02 07:41:39;;;;;;;2.97;2.22;;;4.40;99.90;;;;;;5002830;28;20030;-74
2023/02/02 07:44:06;;;;;;;2.53;1.77;;;4.50;99.90;;;;;;5001874;28;20027;-75
2023/02/02 07:46:31;;;;;;;2.97;2.15;;;4.40;99.90;;;;;;5006937;28;20022;-78
2023/02/02 07:48:57;;;;;;;3.22;2.17;;;4.50;99.90;;;;;;5003392;28;20398;-73
2023/02/02 07:51:24;;;;;;;3.15;2.20;;;4.50;99.90;;;;;;5005732;28;20440;-74
2023/02/02 07:53:52;;;;;;;4.68;1.90;;;4.50;99.90;;;;;;5006848;28;20093;-76
2023/02/02 07:56:20;;;;;;;4.75;2.67;;;4.50;99.90;;;;;;5001243;28;20030;-75
2023/02/02 07:58:47;;;;;;;4.95;2.33;;;4.60;99.90;;;;;;5005255;28;20030;-74
2023/02/02 08:01:14;;;;;;;2.72;1.55;;;4.50;99.90;;;;;;5014324;28;20050;-75
2023/02/02 08:03:41;;;;;;;1.87;1.73;;;4.50;99.90;;;;;;4986516;28;20030;-77
2023/02/02 08:06:22;;;;;;;4.22;2.13;;;4.50;99.90;;;;;;4981029;28;20057;-78
2023/02/02 08:08:48;;;;;;;3.30;1.90;;;4.50;99.90;;;;;;4979630;28;20102;-73
2023/02/02 08:11:16;;;;;;;5.50;2.67;;;4.50;99.90;;;;;;4982261;28;20050;-75
2023/02/02 08:13:43;;;;;;;3.58;2.13;;;4.50;99.90;;;;;;4983214;28;20434;-75
2023/02/02 08:16:09;;;;;;;4.25;1.80;;;4.40;99.90;;;;;;5015321;28;20045;-75
2023/02/02 08:18:35;;;;;;;7.20;2.47;;;4.40;99.90;;;;;;4983719;28;20035;-77
2023/02/02 08:21:02;;;;;;;4.22;2.42;;;4.40;99.90;;;;;;4980559;28;20026;-74
2023/02/02 08:23:30;;;;;;;3.80;2.25;;;4.40;99.90;;;;;;4987751;28;20035;-73
2023/02/02 08:26:05;;;;;;;5.25;2.70;;;4.40;99.90;;;;;;4992525;28;20463;-75
2023/02/02 08:28:31;;;;;;;4.57;2.60;;;4.40;99.90;;;;;;4983723;28;20031;-73
2023/02/02 08:31:02;;;;;;;4.00;1.98;;;4.40;99.90;;;;;;4977939;28;20039;-74
2023/02/02 08:33:27;;;;;;;5.90;2.90;;;4.30;99.90;;;;;;4984014;28;20022;-74
2023/02/02 08:35:53;;;;;;;3.72;1.98;;;4.20;99.90;;;;;;4985450;28;20085;-74
2023/02/02 08:38:18;;;;;;;3.05;1.63;;;4.20;99.90;;;;;;4986440;28;20044;-73
2023/02/02 08:40:44;;;;;;;3.33;2.47;;;4.20;99.90;;;;;;4991473;28;20022;-75
2023/02/02 08:43:10;;;;;;;4.88;2.25;;;4.20;99.90;;;;;;4987744;28;20438;-74
2023/02/02 08:45:35;;;;;;;5.45;2.95;;;4.20;99.90;;;;;;4987412;28;20015;-74
2023/02/02 08:48:01;;;;;;;3.85;2.50;;;4.20;99.90;;;;;;4980696;28;20037;-74
2023/02/02 08:50:27;;;;;;;3.65;2.63;;;4.20;99.90;;;;;;4985117;28;20058;-75
2023/02/02 08:52:52;;;;;;;6.57;2.50;;;4.20;99.90;;;;;;4987549;28;20034;-75
2023/02/02 08:55:18;;;;;;;3.90;2.72;;;4.20;99.90;;;;;;4989126;28;20038;-74
2023/02/02 08:57:43;;;;;;;2.88;2.47;;;4.30;99.90;;;;;;4995021;28;20027;-76
2023/02/02 09:00:10;;;;;;;4.05;2.33;;;4.30;99.90;;;;;;4983344;28;20514;-74
2023/02/02 09:02:36;;;;;;;4.25;2.90;;;4.30;99.90;;;;;;4979624;28;20027;-75
2023/02/02 09:05:01;;;;;;;3.40;2.22;;;4.30;99.90;;;;;;4987020;28;20026;-74
2023/02/02 09:07:27;;;;;;;4.75;2.78;;;4.40;99.90;;;;;;5014924;28;20026;-74
2023/02/02 09:09:54;;;;;;;4.53;2.47;;;4.40;99.90;;;;;;4979200;28;20023;-75
2023/02/02 09:12:20;;;;;;;5.18;2.72;;;4.40;99.90;;;;;;4987345;28;20057;-74
2023/02/02 09:14:46;;;;;;;2.83;2.22;;;4.40;99.90;;;;;;4988525;28;20046;-76
2023/02/02 09:17:11;;;;;;;4.65;2.63;;;4.40;99.90;;;;;;4983824;28;20117;-74
2023/02/02 09:19:37;;;;;;;6.53;3.33;;;4.40;99.90;;;;;;4982131;28;20505;-75
2023/02/02 09:22:03;;;;;;;7.18;2.15;;;4.40;99.90;;;;;;4985935;28;20101;-78
2023/02/02 09:24:28;;;;;;;2.92;2.10;;;4.50;99.90;;;;;;5015516;28;20483;-73
2023/02/02 09:26:54;;;;;;;5.55;2.67;;;4.50;99.90;;;;;;4985466;28;20058;-74
2023/02/02 09:29:20;;;;;;;2.70;2.03;;;4.50;99.90;;;;;;4983508;28;20082;-73
2023/02/02 09:31:45;;;;;;;5.93;2.20;;;4.50;99.90;;;;;;4987819;28;20104;-76
2023/02/02 09:34:13;;;;;;;5.03;2.63;;;4.60;99.90;;;;;;4985099;28;20030;-76
2023/02/02 09:36:39;;;;;;;4.70;2.30;;;4.60;99.90;;;;;;4979397;28;20026;-74
2023/02/02 09:39:05;;;;;;;2.33;1.58;;;4.60;99.90;;;;;;4980225;28;20031;-75
2023/02/02 09:41:37;;;;;;;6.32;2.58;;;4.60;99.90;;;;;;4981051;28;20031;-74
2023/02/02 09:44:37;;;;;;;6.00;2.92;;;4.60;99.90;;;;;;4984332;28;20480;-76
2023/02/02 09:47:21;;;;;;;3.63;2.30;;;4.70;99.90;;;;;;4983370;28;20542;-73
2023/02/02 09:49:59;;;;;;;4.75;2.28;;;4.70;99.90;;;;;;4984207;28;20026;-74
2023/02/02 09:52:25;;;;;;;4.20;2.40;;;4.70;99.90;;;;;;4986664;28;20554;-74
2023/02/02 09:54:58;;;;;;;3.33;2.10;;;4.80;99.90;;;;;;4983912;28;20042;-74
2023/02/02 09:57:30;;;;;;;6.03;2.10;;;4.70;99.90;;;;;;4985375;28;20511;-75
2023/02/02 09:59:56;;;;;;;2.20;2.00;;;4.80;99.90;;;;;;4980152;28;20033;-75
2023/02/02 10:02:30;;;;;;;4.72;2.42;;;4.80;99.90;;;;;;4984929;28;20049;-75
2023/02/02 10:05:07;;;;;;;3.08;2.20;;;4.90;99.90;;;;;;4987272;28;20014;-76
2023/02/02 10:07:38;;;;;;;4.43;2.08;;;4.90;99.90;;;;;;4987078;28;20034;-77
2023/02/02 10:10:14;;;;;;;2.65;1.83;;;4.90;99.90;;;;;;4978924;28;20015;-77
2023/02/02 10:12:51;;;;;;;2.08;1.98;;;4.90;99.90;;;;;;4986250;28;20514;-74
2023/02/02 10:15:32;;;;;;;6.75;2.47;;;4.90;99.90;;;;;;4984240;28;20468;-73
2023/02/02 10:18:34;;;;;;;3.10;1.90;;;4.90;99.90;;;;;;4979398;28;20045;-73
2023/02/02 10:21:02;;;;;;;3.05;2.13;;;5.00;99.90;;;;;;4979543;28;20034;-75
2023/02/02 10:23:34;;;;;;;3.90;2.03;;;4.90;99.90;;;;;;4985135;28;20026;-73
2023/02/02 10:26:28;;;;;;;2.15;1.85;;;5.00;99.90;;;;;;4983422;28;20082;-74
2023/02/02 10:29:12;;;;;;;7.10;2.60;;;5.00;99.90;;;;;;4985831;28;20022;-74
2023/02/02 10:31:42;;;;;;;2.75;1.35;;;5.00;99.90;;;;;;5011009;28;20026;-74
2023/02/02 10:34:23;;;;;;;2.83;1.73;;;5.00;99.90;;;;;;5006401;28;20434;-75
2023/02/02 10:37:21;;;;;;;4.88;1.90;;;5.00;99.90;;;;;;5001470;28;20588;-75
2023/02/02 10:40:08;;;;;;;2.55;1.98;;;5.00;99.90;;;;;;5008828;28;20026;-73
2023/02/02 10:46:08;;;;;;;3.50;1.65;;;5.10;99.90;;;;;;5006913;28;20058;-73
2023/02/02 10:48:34;;;;;;;5.80;2.42;;;5.00;99.90;;;;;;5006358;28;20073;-75
2023/02/02 10:51:18;;;;;;;4.70;2.03;;;5.00;99.90;;;;;;5005120;28;20507;-75
2023/02/02 10:53:52;;;;;;;5.50;2.60;;;5.00;99.90;;;;;;5003254;28;20130;-74
2023/02/02 10:56:47;;;;;;;2.17;2.05;;;5.00;99.90;;;;;;5006669;28;20036;-75
2023/02/02 10:59:14;;;;;;;3.08;1.45;;;5.00;99.90;;;;;;5018101;28;20030;-76
2023/02/02 11:01:40;;;;;;;4.57;2.17;;;5.00;99.90;;;;;;4993387;28;20046;-76
2023/02/02 11:06:52;;;;;;;4.50;2.25;;;5.00;99.90;;;;;;4985107;28;20040;-76
2023/02/02 11:09:22;;;;;;;3.95;2.17;;;5.10;99.90;;;;;;4999182;28;20042;-74
2023/02/02 11:11:53;;;;;;;4.00;1.98;;;5.10;99.90;;;;;;4988685;28;20380;-74
2023/02/02 11:14:38;;;;;;;2.10;2.00;;;5.10;99.90;;;;;;4987409;28;20080;-73
2023/02/02 11:17:05;;;;;;;4.80;1.92;;;5.10;99.90;;;;;;4986654;28;20043;-75
2023/02/02 11:19:33;;;;;;;1.88;1.35;;;5.10;99.90;;;;;;4983617;28;20033;-75
2023/02/02 11:22:03;;;;;;;3.10;1.92;;;5.10;99.90;;;;;;4985742;28;20030;-76
2023/02/02 11:24:35;;;;;;;1.75;1.65;;;5.10;99.90;;;;;;4984229;28;20503;-78
2023/02/02 11:27:11;;;;;;;3.40;1.55;;;5.10;99.90;;;;;;4986673;28;20109;-74
2023/02/02 11:29:39;;;;;;;3.53;1.80;;;5.10;99.90;;;;;;4986511;28;20026;-74
2023/02/02 11:32:17;;;;;;;3.88;1.73;;;5.10;99.90;;;;;;4985466;28;20039;-77
2023/02/02 11:34:42;;;;;;;4.00;2.05;;;5.10;99.90;;;;;;4987646;28;20070;-75
2023/02/02 11:37:18;;;;;;;3.42;2.35;;;5.10;99.90;;;;;;4983759;28;20714;-76
2023/02/02 11:39:44;;;;;;;3.05;1.70;;;5.10;99.90;;;;;;5002316;28;20472;-74
2023/02/02 11:42:20;;;;;;;4.22;2.50;;;5.20;99.90;;;;;;4988845;28;20034;-75
2023/02/02 11:44:56;;;;;;;5.30;2.47;;;5.20;99.90;;;;;;4984832;28;20019;-75
2023/02/02 11:47:28;;;;;;;2.35;1.98;;;5.20;99.90;;;;;;4983788;28;20506;-75
2023/02/02 11:49:56;;;;;;;5.90;2.55;;;5.10;99.90;;;;;;4989348;28;20031;-74
2023/02/02 11:52:24;;;;;;;4.15;2.50;;;5.20;99.90;;;;;;4984857;28;20101;-74
2023/02/02 11:54:59;;;;;;;5.35;2.53;;;5.20;99.90;;;;;;4988057;28;20046;-74
2023/02/02 11:57:27;;;;;;;2.85;1.98;;;5.20;99.90;;;;;;5001989;28;20496;-74
2023/02/02 12:00:16;;;;;;;5.30;2.50;;;5.20;99.90;;;;;;4988761;28;20045;-75
2023/02/02 12:02:49;;;;;;;2.97;2.00;;;5.20;99.90;;;;;;4977542;28;20069;-74
2023/02/02 12:05:22;;;;;;;4.53;2.45;;;5.20;99.90;;;;;;4976011;28;20425;-74
2023/02/02 12:07:48;;;;;;;4.32;2.45;;;5.20;99.90;;;;;;4974982;28;20546;-76
2023/02/02 12:10:24;;;;;;;4.75;2.20;;;5.20;99.90;;;;;;4974530;28;20053;-74
2023/02/02 12:13:28;;;;;;;4.20;2.05;;;5.10;99.90;;;;;;4982327;28;20045;-73
2023/02/02 12:16:01;;;;;;;2.65;2.30;;;5.10;99.90;;;;;;4979180;28;20030;-75
2023/02/02 12:18:51;;;;;;;5.00;2.75;;;5.10;99.90;;;;;;4986597;28;20030;-75
2023/02/02 12:21:46;;;;;;;2.78;2.25;;;5.10;99.90;;;;;;4983423;28;20113;-75
2023/02/02 12:24:42;;;;;;;3.53;1.83;;;5.10;99.90;;;;;;4988753;28;20141;-76
2023/02/02 12:27:43;;;;;;;2.28;2.08;;;5.10;99.90;;;;;;4981645;28;20050;-78
2023/02/02 12:30:22;;;;;;;2.05;1.65;;;5.10;99.90;;;;;;4991923;28;20062;-73
2023/02/02 12:33:15;;;;;;;2.30;1.90;;;5.10;99.90;;;;;;5019251;28;20038;-75
2023/02/02 12:36:06;;;;;;;2.08;1.73;;;5.00;99.90;;;;;;5021410;28;20037;-73
2023/02/02 12:38:59;;;;;;;5.22;2.25;;;5.00;99.90;;;;;;4999751;28;20471;-74
2023/02/02 12:41:28;;;;;;;2.15;1.95;;;5.00;99.90;;;;;;5004828;28;20033;-74
2023/02/02 12:44:14;;;;;;;2.70;2.30;;;5.00;99.90;;;;;;5004886;28;20018;-74
2023/02/02 12:46:55;;;;;;;3.90;2.38;;;5.00;99.90;;;;;;5017958;28;20022;-75
2023/02/02 12:49:40;;;;;;;2.75;2.08;;;5.00;99.90;;;;;;5017097;28;20046;-74
2023/02/02 12:52:32;;;;;;;4.60;2.22;;;5.00;99.90;;;;;;5002936;28;20073;-74
2023/02/02 12:55:22;;;;;;;5.03;2.30;;;4.90;99.90;;;;;;5001817;28;20034;-75
2023/02/02 12:58:08;;;;;;;2.60;1.95;;;4.90;99.90;;;;;;5008041;28;20105;-80
2023/02/02 13:00:54;;;;;;;5.57;2.33;;;4.80;99.90;;;;;;5013777;28;20072;-73
2023/02/02 13:03:48;;;;;;;4.95;2.50;;;4.80;99.90;;;;;;5004090;28;20022;-75
2023/02/02 13:06:14;;;;;;;1.75;1.65;;;4.80;99.90;;;;;;5004313;28;20057;-74
2023/02/02 13:08:54;;;;;;;5.05;2.25;;;4.80;99.90;;;;;;4996285;28;20058;-75
2023/02/02 13:11:32;;;;;;;2.42;2.03;;;4.80;99.90;;;;;;5010467;28;20087;-77
2023/02/02 13:14:19;;;;;;;2.55;2.15;;;4.80;99.90;;;;;;5010210;28;20036;-74
2023/02/02 13:16:49;;;;;;;3.92;1.98;;;4.80;99.90;;;;;;5006221;28;20442;-75
2023/02/02 13:19:26;;;;;;;4.70;2.67;;;4.80;99.90;;;;;;4996645;28;20034;-75
2023/02/02 13:21:56;;;;;;;4.68;2.13;;;4.80;99.90;;;;;;5001009;28;20125;-75
2023/02/02 13:24:29;;;;;;;4.28;2.25;;;4.80;99.90;;;;;;5000088;28;20032;-75
2023/02/02 13:26:58;;;;;;;1.40;1.35;;;4.70;99.90;;;;;;5000319;28;20026;-74
2023/02/02 13:29:30;;;;;;;;;;;4.80;99.90;;;;;;4993741;28;20033;-73
2023/02/02 13:32:05;;;;;;;2.88;1.77;;;4.80;99.90;;;;;;5003267;28;19918;-74